sensor_id;sensor_type;location;lat;lon;timestamp;P1;durP1;ratioP1;P2;durP2;ratioP2
60494;SDS011;46342;49.046;11.920;2023-05-07T00:01:52;1.77;;;1.65;;
60494;SDS011;46342;49.046;11.920;2023-05-07T00:04:18;1.75;;;1.65;;
60494;SDS011;46342;49.046;11.920;2023-05-07T00:06:43;3.38;;;1.60;;
60494;SDS011;46342;49.046;11.920;2023-05-07T00:09:10;2.38;;;2.00;;
60494;SDS011;46342;49.046;11.920;2023-05-07T00:11:35;1.90;;;1.80;;
60494;SDS011;46342;49.046;11.920;2023-05-07T00:14:01;1.88;;;1.58;;
60494;SDS011;46342;49.046;11.920;2023-05-07T00:16:27;1.90;;;1.50;;
60494;SDS011;46342;49.046;11.920;2023-05-07T00:18:52;2.95;;;1.90;;
60494;SDS011;46342;49.046;11.920;2023-05-07T00:21:18;1.80;;;1.70;;
60494;SDS011;46342;49.046;11.920;2023-05-07T00:23:44;2.28;;;1.80;;
60494;SDS011;46342;49.046;11.920;2023-05-07T00:26:09;1.70;;;1.60;;
60494;SDS011;46342;49.046;11.920;2023-05-07T00:28:35;2.08;;;1.80;;
60494;SDS011;46342;49.046;11.920;2023-05-07T00:31:01;1.70;;;1.60;;
60494;SDS011;46342;49.046;11.920;2023-05-07T00:33:26;1.98;;;1.52;;
60494;SDS011;46342;49.046;11.920;2023-05-07T00:35:52;4.32;;;1.95;;
60494;SDS011;46342;49.046;11.920;2023-05-07T00:38:19;2.15;;;1.52;;
60494;SDS011;46342;49.046;11.920;2023-05-07T00:40:45;3.33;;;1.80;;
60494;SDS011;46342;49.046;11.920;2023-05-07T00:43:10;2.45;;;2.25;;
60494;SDS011;46342;49.046;11.920;2023-05-07T00:45:37;2.78;;;1.80;;
60494;SDS011;46342;49.046;11.920;2023-05-07T00:48:03;1.85;;;1.65;;
60494;SDS011;46342;49.046;11.920;2023-05-07T00:50:30;1.67;;;1.58;;
60494;SDS011;46342;49.046;11.920;2023-05-07T00:52:56;1.98;;;1.77;;
60494;SDS011;46342;49.046;11.920;2023-05-07T00:55:22;2.35;;;1.80;;
60494;SDS011;46342;49.046;11.920;2023-05-07T00:57:48;1.95;;;1.70;;
60494;SDS011;46342;49.046;11.920;2023-05-07T01:00:15;1.60;;;1.50;;
60494;SDS011;46342;49.046;11.920;2023-05-07T01:02:41;3.85;;;1.88;;
60494;SDS011;46342;49.046;11.920;2023-05-07T01:05:09;2.67;;;1.73;;
60494;SDS011;46342;49.046;11.920;2023-05-07T01:07:37;3.92;;;1.85;;
60494;SDS011;46342;49.046;11.920;2023-05-07T01:10:05;1.77;;;1.67;;
60494;SDS011;46342;49.046;11.920;2023-05-07T01:12:32;2.97;;;2.00;;
60494;SDS011;46342;49.046;11.920;2023-05-07T01:14:59;2.10;;;1.73;;
60494;SDS011;46342;49.046;11.920;2023-05-07T01:17:25;1.60;;;1.50;;
60494;SDS011;46342;49.046;11.920;2023-05-07T01:19:50;2.75;;;2.10;;
60494;SDS011;46342;49.046;11.920;2023-05-07T01:22:22;3.28;;;1.88;;
60494;SDS011;46342;49.046;11.920;2023-05-07T01:25:12;5.55;;;2.22;;
60494;SDS011;46342;49.046;11.920;2023-05-07T01:27:38;2.22;;;1.90;;
60494;SDS011;46342;49.046;11.920;2023-05-07T01:30:04;2.53;;;1.80;;
60494;SDS011;46342;49.046;11.920;2023-05-07T01:32:32;2.30;;;1.90;;
60494;SDS011;46342;49.046;11.920;2023-05-07T01:35:18;2.05;;;1.70;;
60494;SDS011;46342;49.046;11.920;2023-05-07T01:37:47;1.88;;;1.77;;
60494;SDS011;46342;49.046;11.920;2023-05-07T01:40:14;2.10;;;1.90;;
60494;SDS011;46342;49.046;11.920;2023-05-07T01:42:41;2.22;;;2.00;;
60494;SDS011;46342;49.046;11.920;2023-05-07T01:45:08;2.13;;;1.70;;
60494;SDS011;46342;49.046;11.920;2023-05-07T01:47:34;1.77;;;1.65;;
60494;SDS011;46342;49.046;11.920;2023-05-07T01:50:02;2.22;;;1.80;;
60494;SDS011;46342;49.046;11.920;2023-05-07T01:52:29;2.13;;;1.92;;
60494;SDS011;46342;49.046;11.920;2023-05-07T01:54:55;1.90;;;1.75;;
60494;SDS011;46342;49.046;11.920;2023-05-07T01:57:20;1.60;;;1.50;;
60494;SDS011;46342;49.046;11.920;2023-05-07T01:59:46;1.85;;;1.75;;
60494;SDS011;46342;49.046;11.920;2023-05-07T02:02:11;2.13;;;1.80;;
60494;SDS011;46342;49.046;11.920;2023-05-07T02:04:37;1.83;;;1.73;;
60494;SDS011;46342;49.046;11.920;2023-05-07T02:07:02;2.63;;;1.90;;
60494;SDS011;46342;49.046;11.920;2023-05-07T02:09:28;1.70;;;1.60;;
60494;SDS011;46342;49.046;11.920;2023-05-07T02:11:53;1.65;;;1.55;;
60494;SDS011;46342;49.046;11.920;2023-05-07T02:14:19;3.63;;;2.10;;
60494;SDS011;46342;49.046;11.920;2023-05-07T02:16:45;1.77;;;1.60;;
60494;SDS011;46342;49.046;11.920;2023-05-07T02:19:11;2.40;;;2.17;;
60494;SDS011;46342;49.046;11.920;2023-05-07T02:21:36;1.98;;;1.77;;
60494;SDS011;46342;49.046;11.920;2023-05-07T02:24:02;3.88;;;2.15;;
60494;SDS011;46342;49.046;11.920;2023-05-07T02:26:27;3.17;;;2.30;;
60494;SDS011;46342;49.046;11.920;2023-05-07T02:28:53;4.70;;;2.33;;
60494;SDS011;46342;49.046;11.920;2023-05-07T02:31:18;2.80;;;2.60;;
60494;SDS011;46342;49.046;11.920;2023-05-07T02:33:44;2.78;;;2.22;;
60494;SDS011;46342;49.046;11.920;2023-05-07T02:36:10;3.15;;;2.50;;
60494;SDS011;46342;49.046;11.920;2023-05-07T02:38:37;3.95;;;2.28;;
60494;SDS011;46342;49.046;11.920;2023-05-07T02:41:02;3.28;;;2.28;;
60494;SDS011;46342;49.046;11.920;2023-05-07T02:43:28;3.00;;;2.60;;
60494;SDS011;46342;49.046;11.920;2023-05-07T02:46:04;3.08;;;2.78;;
60494;SDS011;46342;49.046;11.920;2023-05-07T02:48:30;4.95;;;2.50;;
60494;SDS011;46342;49.046;11.920;2023-05-07T02:50:56;3.35;;;2.58;;
60494;SDS011;46342;49.046;11.920;2023-05-07T02:53:22;3.30;;;2.05;;
60494;SDS011;46342;49.046;11.920;2023-05-07T02:55:50;4.43;;;1.92;;
60494;SDS011;46342;49.046;11.920;2023-05-07T02:58:15;3.33;;;2.50;;
60494;SDS011;46342;49.046;11.920;2023-05-07T03:00:41;2.53;;;2.33;;
60494;SDS011;46342;49.046;11.920;2023-05-07T03:03:07;2.38;;;2.17;;
60494;SDS011;46342;49.046;11.920;2023-05-07T03:05:32;3.03;;;2.20;;
60494;SDS011;46342;49.046;11.920;2023-05-07T03:07:58;2.60;;;2.30;;
60494;SDS011;46342;49.046;11.920;2023-05-07T03:10:23;2.40;;;2.20;;
60494;SDS011;46342;49.046;11.920;2023-05-07T03:12:49;2.67;;;2.30;;
60494;SDS011;46342;49.046;11.920;2023-05-07T03:15:14;2.60;;;2.30;;
60494;SDS011;46342;49.046;11.920;2023-05-07T03:17:40;2.45;;;2.20;;
60494;SDS011;46342;49.046;11.920;2023-05-07T03:20:06;2.50;;;2.30;;
60494;SDS011;46342;49.046;11.920;2023-05-07T03:22:32;2.58;;;2.38;;
60494;SDS011;46342;49.046;11.920;2023-05-07T03:24:58;2.72;;;2.20;;
60494;SDS011;46342;49.046;11.920;2023-05-07T03:27:23;2.70;;;2.33;;
60494;SDS011;46342;49.046;11.920;2023-05-07T03:29:49;4.07;;;2.70;;
60494;SDS011;46342;49.046;11.920;2023-05-07T03:32:14;3.25;;;2.17;;
60494;SDS011;46342;49.046;11.920;2023-05-07T03:34:40;2.20;;;2.00;;
60494;SDS011;46342;49.046;11.920;2023-05-07T03:37:06;2.67;;;2.47;;
60494;SDS011;46342;49.046;11.920;2023-05-07T03:39:31;4.13;;;2.50;;
60494;SDS011;46342;49.046;11.920;2023-05-07T03:41:57;2.50;;;2.22;;
60494;SDS011;46342;49.046;11.920;2023-05-07T03:44:23;3.05;;;2.45;;
60494;SDS011;46342;49.046;11.920;2023-05-07T03:46:48;2.47;;;2.28;;
60494;SDS011;46342;49.046;11.920;2023-05-07T03:49:14;4.70;;;2.20;;
60494;SDS011;46342;49.046;11.920;2023-05-07T03:51:39;2.72;;;2.20;;
60494;SDS011;46342;49.046;11.920;2023-05-07T03:54:05;3.67;;;2.70;;
60494;SDS011;46342;49.046;11.920;2023-05-07T03:56:30;2.80;;;2.58;;
60494;SDS011;46342;49.046;11.920;2023-05-07T03:58:56;2.47;;;2.20;;
60494;SDS011;46342;49.046;11.920;2023-05-07T04:01:22;2.88;;;2.58;;
60494;SDS011;46342;49.046;11.920;2023-05-07T04:03:47;3.28;;;2.47;;
60494;SDS011;46342;49.046;11.920;2023-05-07T04:06:13;3.63;;;2.88;;
60494;SDS011;46342;49.046;11.920;2023-05-07T04:08:40;2.67;;;2.47;;
60494;SDS011;46342;49.046;11.920;2023-05-07T04:11:05;3.72;;;3.03;;
60494;SDS011;46342;49.046;11.920;2023-05-07T04:13:31;2.95;;;2.50;;
60494;SDS011;46342;49.046;11.920;2023-05-07T04:15:57;3.63;;;2.40;;
60494;SDS011;46342;49.046;11.920;2023-05-07T04:18:22;3.50;;;2.50;;
60494;SDS011;46342;49.046;11.920;2023-05-07T04:20:48;4.60;;;2.72;;
60494;SDS011;46342;49.046;11.920;2023-05-07T04:23:14;3.25;;;2.88;;
60494;SDS011;46342;49.046;11.920;2023-05-07T04:25:40;2.58;;;2.25;;
60494;SDS011;46342;49.046;11.920;2023-05-07T04:28:06;2.85;;;2.63;;
60494;SDS011;46342;49.046;11.920;2023-05-07T04:30:32;2.63;;;2.42;;
60494;SDS011;46342;49.046;11.920;2023-05-07T04:32:57;2.42;;;2.15;;
60494;SDS011;46342;49.046;11.920;2023-05-07T04:35:23;2.92;;;2.67;;
60494;SDS011;46342;49.046;11.920;2023-05-07T04:37:48;3.28;;;2.70;;
60494;SDS011;46342;49.046;11.920;2023-05-07T04:40:14;3.60;;;3.00;;
60494;SDS011;46342;49.046;11.920;2023-05-07T04:42:40;3.28;;;2.80;;
60494;SDS011;46342;49.046;11.920;2023-05-07T04:45:06;2.70;;;2.50;;
60494;SDS011;46342;49.046;11.920;2023-05-07T04:47:33;3.10;;;2.78;;
60494;SDS011;46342;49.046;11.920;2023-05-07T04:49:59;3.17;;;2.88;;
60494;SDS011;46342;49.046;11.920;2023-05-07T04:52:24;3.50;;;2.72;;
60494;SDS011;46342;49.046;11.920;2023-05-07T04:54:50;3.78;;;3.03;;
60494;SDS011;46342;49.046;11.920;2023-05-07T04:57:16;4.82;;;3.70;;
60494;SDS011;46342;49.046;11.920;2023-05-07T04:59:42;3.42;;;2.90;;
60494;SDS011;46342;49.046;11.920;2023-05-07T05:02:09;2.97;;;2.67;;
60494;SDS011;46342;49.046;11.920;2023-05-07T05:04:35;3.13;;;2.58;;
60494;SDS011;46342;49.046;11.920;2023-05-07T05:07:01;4.20;;;2.97;;
60494;SDS011;46342;49.046;11.920;2023-05-07T05:09:28;2.93;;;2.60;;
60494;SDS011;46342;49.046;11.920;2023-05-07T05:11:54;3.40;;;2.65;;
60494;SDS011;46342;49.046;11.920;2023-05-07T05:14:20;2.40;;;2.20;;
60494;SDS011;46342;49.046;11.920;2023-05-07T05:16:45;3.95;;;2.83;;
60494;SDS011;46342;49.046;11.920;2023-05-07T05:19:11;2.65;;;2.45;;
60494;SDS011;46342;49.046;11.920;2023-05-07T05:21:36;5.85;;;3.35;;
60494;SDS011;46342;49.046;11.920;2023-05-07T05:24:02;2.88;;;2.60;;
60494;SDS011;46342;49.046;11.920;2023-05-07T05:26:28;4.95;;;2.90;;
60494;SDS011;46342;49.046;11.920;2023-05-07T05:28:53;3.63;;;2.85;;
60494;SDS011;46342;49.046;11.920;2023-05-07T05:31:19;2.50;;;2.30;;
60494;SDS011;46342;49.046;11.920;2023-05-07T05:33:44;3.22;;;2.85;;
60494;SDS011;46342;49.046;11.920;2023-05-07T05:36:10;2.83;;;2.15;;
60494;SDS011;46342;49.046;11.920;2023-05-07T05:38:37;4.30;;;2.72;;
60494;SDS011;46342;49.046;11.920;2023-05-07T05:41:02;4.18;;;2.67;;
60494;SDS011;46342;49.046;11.920;2023-05-07T05:43:28;3.33;;;2.80;;
60494;SDS011;46342;49.046;11.920;2023-05-07T05:45:55;3.50;;;2.95;;
60494;SDS011;46342;49.046;11.920;2023-05-07T05:48:21;3.47;;;2.90;;
60494;SDS011;46342;49.046;11.920;2023-05-07T05:50:46;3.78;;;2.95;;
60494;SDS011;46342;49.046;11.920;2023-05-07T05:53:12;4.22;;;2.83;;
60494;SDS011;46342;49.046;11.920;2023-05-07T05:55:37;3.35;;;3.05;;
60494;SDS011;46342;49.046;11.920;2023-05-07T05:58:03;3.75;;;3.05;;
60494;SDS011;46342;49.046;11.920;2023-05-07T06:00:28;3.50;;;3.20;;
60494;SDS011;46342;49.046;11.920;2023-05-07T06:02:54;3.35;;;2.80;;
60494;SDS011;46342;49.046;11.920;2023-05-07T06:05:20;4.00;;;2.90;;
60494;SDS011;46342;49.046;11.920;2023-05-07T06:07:46;4.28;;;3.00;;
60494;SDS011;46342;49.046;11.920;2023-05-07T06:10:11;3.40;;;3.10;;
60494;SDS011;46342;49.046;11.920;2023-05-07T06:12:37;3.15;;;2.85;;
60494;SDS011;46342;49.046;11.920;2023-05-07T06:15:03;3.22;;;2.90;;
60494;SDS011;46342;49.046;11.920;2023-05-07T06:17:29;4.13;;;3.13;;
60494;SDS011;46342;49.046;11.920;2023-05-07T06:19:55;3.70;;;3.20;;
60494;SDS011;46342;49.046;11.920;2023-05-07T06:22:21;3.20;;;2.90;;
60494;SDS011;46342;49.046;11.920;2023-05-07T06:24:46;3.83;;;3.05;;
60494;SDS011;46342;49.046;11.920;2023-05-07T06:27:12;2.80;;;2.50;;
60494;SDS011;46342;49.046;11.920;2023-05-07T06:29:37;3.40;;;3.10;;
60494;SDS011;46342;49.046;11.920;2023-05-07T06:32:07;2.83;;;2.53;;
60494;SDS011;46342;49.046;11.920;2023-05-07T06:34:35;3.50;;;3.03;;
60494;SDS011;46342;49.046;11.920;2023-05-07T06:37:01;4.60;;;3.05;;
60494;SDS011;46342;49.046;11.920;2023-05-07T06:39:27;3.10;;;2.80;;
60494;SDS011;46342;49.046;11.920;2023-05-07T06:41:53;4.00;;;2.97;;
60494;SDS011;46342;49.046;11.920;2023-05-07T06:44:18;4.25;;;3.22;;
60494;SDS011;46342;49.046;11.920;2023-05-07T06:46:44;5.53;;;2.72;;
60494;SDS011;46342;49.046;11.920;2023-05-07T06:49:10;3.47;;;2.72;;
60494;SDS011;46342;49.046;11.920;2023-05-07T06:51:36;2.88;;;2.53;;
60494;SDS011;46342;49.046;11.920;2023-05-07T06:54:02;3.08;;;2.78;;
60494;SDS011;46342;49.046;11.920;2023-05-07T06:56:29;3.85;;;3.33;;
60494;SDS011;46342;49.046;11.920;2023-05-07T06:58:55;3.47;;;2.72;;
60494;SDS011;46342;49.046;11.920;2023-05-07T07:01:21;4.25;;;3.30;;
60494;SDS011;46342;49.046;11.920;2023-05-07T07:03:47;3.35;;;2.95;;
60494;SDS011;46342;49.046;11.920;2023-05-07T07:06:12;6.47;;;3.42;;
60494;SDS011;46342;49.046;11.920;2023-05-07T07:08:38;3.72;;;2.78;;
60494;SDS011;46342;49.046;11.920;2023-05-07T07:11:04;4.40;;;3.08;;
60494;SDS011;46342;49.046;11.920;2023-05-07T07:13:30;3.45;;;2.65;;
60494;SDS011;46342;49.046;11.920;2023-05-07T07:15:55;3.65;;;2.90;;
60494;SDS011;46342;49.046;11.920;2023-05-07T07:18:21;3.10;;;2.38;;
60494;SDS011;46342;49.046;11.920;2023-05-07T07:20:47;3.08;;;2.45;;
60494;SDS011;46342;49.046;11.920;2023-05-07T07:23:13;4.30;;;3.30;;
60494;SDS011;46342;49.046;11.920;2023-05-07T07:25:39;3.70;;;3.25;;
60494;SDS011;46342;49.046;11.920;2023-05-07T07:28:05;3.55;;;3.05;;
60494;SDS011;46342;49.046;11.920;2023-05-07T07:30:30;3.38;;;3.00;;
60494;SDS011;46342;49.046;11.920;2023-05-07T07:32:56;3.42;;;3.13;;
60494;SDS011;46342;49.046;11.920;2023-05-07T07:35:27;4.30;;;3.08;;
60494;SDS011;46342;49.046;11.920;2023-05-07T07:37:56;4.47;;;2.78;;
60494;SDS011;46342;49.046;11.920;2023-05-07T07:40:22;3.17;;;2.88;;
60494;SDS011;46342;49.046;11.920;2023-05-07T07:42:48;3.85;;;3.22;;
60494;SDS011;46342;49.046;11.920;2023-05-07T07:45:13;3.30;;;3.00;;
60494;SDS011;46342;49.046;11.920;2023-05-07T07:47:39;3.40;;;3.00;;
60494;SDS011;46342;49.046;11.920;2023-05-07T07:50:05;3.22;;;2.92;;
60494;SDS011;46342;49.046;11.920;2023-05-07T07:52:32;3.53;;;3.22;;
60494;SDS011;46342;49.046;11.920;2023-05-07T07:54:57;3.22;;;2.92;;
60494;SDS011;46342;49.046;11.920;2023-05-07T07:57:23;4.47;;;3.15;;
60494;SDS011;46342;49.046;11.920;2023-05-07T07:59:49;4.45;;;3.30;;
60494;SDS011;46342;49.046;11.920;2023-05-07T08:02:15;6.88;;;3.25;;
60494;SDS011;46342;49.046;11.920;2023-05-07T08:04:41;3.40;;;3.10;;
60494;SDS011;46342;49.046;11.920;2023-05-07T08:07:08;4.65;;;3.20;;
60494;SDS011;46342;49.046;11.920;2023-05-07T08:09:34;2.88;;;2.53;;
60494;SDS011;46342;49.046;11.920;2023-05-07T08:12:00;5.15;;;3.20;;
60494;SDS011;46342;49.046;11.920;2023-05-07T08:14:26;5.18;;;2.97;;
60494;SDS011;46342;49.046;11.920;2023-05-07T08:16:53;4.95;;;2.80;;
60494;SDS011;46342;49.046;11.920;2023-05-07T08:19:19;3.05;;;2.75;;
60494;SDS011;46342;49.046;11.920;2023-05-07T08:21:45;3.55;;;2.80;;
60494;SDS011;46342;49.046;11.920;2023-05-07T08:24:12;4.20;;;3.10;;
60494;SDS011;46342;49.046;11.920;2023-05-07T08:26:39;3.85;;;3.22;;
60494;SDS011;46342;49.046;11.920;2023-05-07T08:29:05;3.50;;;3.20;;
60494;SDS011;46342;49.046;11.920;2023-05-07T08:31:30;3.35;;;3.03;;
60494;SDS011;46342;49.046;11.920;2023-05-07T08:33:57;3.97;;;3.25;;
60494;SDS011;46342;49.046;11.920;2023-05-07T08:36:23;4.63;;;3.10;;
60494;SDS011;46342;49.046;11.920;2023-05-07T08:38:48;5.90;;;3.30;;
60494;SDS011;46342;49.046;11.920;2023-05-07T08:41:14;2.85;;;2.55;;
60494;SDS011;46342;49.046;11.920;2023-05-07T08:43:40;3.50;;;2.83;;
60494;SDS011;46342;49.046;11.920;2023-05-07T08:46:06;3.42;;;3.13;;
60494;SDS011;46342;49.046;11.920;2023-05-07T08:48:34;3.35;;;3.05;;
60494;SDS011;46342;49.046;11.920;2023-05-07T08:51:00;4.13;;;3.53;;
60494;SDS011;46342;49.046;11.920;2023-05-07T08:53:26;4.07;;;3.50;;
60494;SDS011;46342;49.046;11.920;2023-05-07T08:55:52;3.80;;;3.40;;
60494;SDS011;46342;49.046;11.920;2023-05-07T08:58:18;3.47;;;2.90;;
60494;SDS011;46342;49.046;11.920;2023-05-07T09:00:44;4.70;;;3.08;;
60494;SDS011;46342;49.046;11.920;2023-05-07T09:03:09;3.70;;;3.35;;
60494;SDS011;46342;49.046;11.920;2023-05-07T09:08:03;3.78;;;2.88;;
60494;SDS011;46342;49.046;11.920;2023-05-07T09:10:29;2.80;;;2.58;;
60494;SDS011;46342;49.046;11.920;2023-05-07T09:12:57;4.13;;;3.05;;
60494;SDS011;46342;49.046;11.920;2023-05-07T09:15:22;9.20;;;3.78;;
60494;SDS011;46342;49.046;11.920;2023-05-07T09:17:48;4.95;;;3.33;;
60494;SDS011;46342;49.046;11.920;2023-05-07T09:20:14;3.53;;;3.22;;
60494;SDS011;46342;49.046;11.920;2023-05-07T09:22:41;4.88;;;3.35;;
60494;SDS011;46342;49.046;11.920;2023-05-07T09:25:06;3.90;;;2.95;;
60494;SDS011;46342;49.046;11.920;2023-05-07T09:27:33;3.70;;;3.30;;
60494;SDS011;46342;49.046;11.920;2023-05-07T09:29:58;3.50;;;3.20;;
60494;SDS011;46342;49.046;11.920;2023-05-07T09:32:24;3.80;;;2.92;;
60494;SDS011;46342;49.046;11.920;2023-05-07T09:34:50;3.63;;;3.33;;
60494;SDS011;46342;49.046;11.920;2023-05-07T09:37:16;4.40;;;3.40;;
60494;SDS011;46342;49.046;11.920;2023-05-07T09:39:43;6.15;;;3.58;;
60494;SDS011;46342;49.046;11.920;2023-05-07T09:42:09;3.40;;;2.97;;
60494;SDS011;46342;49.046;11.920;2023-05-07T09:44:36;3.30;;;2.78;;
60494;SDS011;46342;49.046;11.920;2023-05-07T09:47:04;3.33;;;2.97;;
60494;SDS011;46342;49.046;11.920;2023-05-07T09:49:32;4.63;;;3.33;;
60494;SDS011;46342;49.046;11.920;2023-05-07T09:52:00;3.08;;;2.78;;
60494;SDS011;46342;49.046;11.920;2023-05-07T09:54:27;3.25;;;2.95;;
60494;SDS011;46342;49.046;11.920;2023-05-07T09:56:55;3.80;;;3.50;;
60494;SDS011;46342;49.046;11.920;2023-05-07T09:59:23;4.20;;;3.80;;
60494;SDS011;46342;49.046;11.920;2023-05-07T10:01:50;4.32;;;3.47;;
60494;SDS011;46342;49.046;11.920;2023-05-07T10:04:17;3.05;;;2.85;;
60494;SDS011;46342;49.046;11.920;2023-05-07T10:06:43;3.67;;;3.08;;
60494;SDS011;46342;49.046;11.920;2023-05-07T10:09:10;2.97;;;2.70;;
60494;SDS011;46342;49.046;11.920;2023-05-07T10:11:37;3.97;;;3.20;;
60494;SDS011;46342;49.046;11.920;2023-05-07T10:14:03;3.53;;;2.90;;
60494;SDS011;46342;49.046;11.920;2023-05-07T10:16:34;3.30;;;3.00;;
60494;SDS011;46342;49.046;11.920;2023-05-07T10:19:04;3.40;;;3.10;;
60494;SDS011;46342;49.046;11.920;2023-05-07T10:21:38;4.43;;;3.50;;
60494;SDS011;46342;49.046;11.920;2023-05-07T10:24:18;4.45;;;3.05;;
60494;SDS011;46342;49.046;11.920;2023-05-07T10:26:47;5.93;;;3.00;;
60494;SDS011;46342;49.046;11.920;2023-05-07T10:29:24;3.63;;;3.08;;
60494;SDS011;46342;49.046;11.920;2023-05-07T10:34:39;4.05;;;3.30;;
60494;SDS011;46342;49.046;11.920;2023-05-07T10:37:08;3.30;;;2.42;;
60494;SDS011;46342;49.046;11.920;2023-05-07T10:39:35;3.45;;;3.15;;
60494;SDS011;46342;49.046;11.920;2023-05-07T10:42:08;3.33;;;3.03;;
60494;SDS011;46342;49.046;11.920;2023-05-07T10:44:34;3.13;;;2.90;;
60494;SDS011;46342;49.046;11.920;2023-05-07T10:47:11;5.20;;;3.70;;
60494;SDS011;46342;49.046;11.920;2023-05-07T10:52:17;4.78;;;3.25;;
60494;SDS011;46342;49.046;11.920;2023-05-07T11:00:00;4.00;;;2.28;;
60494;SDS011;46342;49.046;11.920;2023-05-07T11:05:29;2.90;;;2.30;;
60494;SDS011;46342;49.046;11.920;2023-05-07T11:07:56;3.40;;;2.45;;
60494;SDS011;46342;49.046;11.920;2023-05-07T11:13:14;3.25;;;2.63;;
60494;SDS011;46342;49.046;11.920;2023-05-07T11:15:41;2.83;;;2.33;;
60494;SDS011;46342;49.046;11.920;2023-05-07T11:18:12;3.88;;;2.25;;
60494;SDS011;46342;49.046;11.920;2023-05-07T11:20:44;2.95;;;2.40;;
60494;SDS011;46342;49.046;11.920;2023-05-07T11:26:03;2.72;;;2.10;;
60494;SDS011;46342;49.046;11.920;2023-05-07T11:28:39;2.47;;;1.75;;
60494;SDS011;46342;49.046;11.920;2023-05-07T11:31:06;2.47;;;1.80;;
60494;SDS011;46342;49.046;11.920;2023-05-07T11:33:32;3.05;;;1.80;;
60494;SDS011;46342;49.046;11.920;2023-05-07T11:35:59;3.67;;;1.50;;
60494;SDS011;46342;49.046;11.920;2023-05-07T11:38:25;1.50;;;1.30;;
60494;SDS011;46342;49.046;11.920;2023-05-07T11:40:51;2.83;;;2.05;;
60494;SDS011;46342;49.046;11.920;2023-05-07T11:43:21;3.20;;;1.80;;
60494;SDS011;46342;49.046;11.920;2023-05-07T11:45:47;3.05;;;2.20;;
60494;SDS011;46342;49.046;11.920;2023-05-07T11:48:13;5.13;;;2.30;;
60494;SDS011;46342;49.046;11.920;2023-05-07T11:50:50;20.98;;;2.53;;
60494;SDS011;46342;49.046;11.920;2023-05-07T11:53:17;10.75;;;2.38;;
60494;SDS011;46342;49.046;11.920;2023-05-07T11:55:43;15.35;;;2.95;;
60494;SDS011;46342;49.046;11.920;2023-05-07T11:58:10;20.85;;;2.20;;
60494;SDS011;46342;49.046;11.920;2023-05-07T12:00:37;2.53;;;1.85;;
60494;SDS011;46342;49.046;11.920;2023-05-07T12:03:05;1.88;;;1.70;;
60494;SDS011;46342;49.046;11.920;2023-05-07T12:05:31;2.22;;;2.00;;
60494;SDS011;46342;49.046;11.920;2023-05-07T12:07:57;2.53;;;2.30;;
60494;SDS011;46342;49.046;11.920;2023-05-07T12:10:22;5.18;;;2.10;;
60494;SDS011;46342;49.046;11.920;2023-05-07T12:12:49;7.30;;;2.60;;
60494;SDS011;46342;49.046;11.920;2023-05-07T12:15:16;2.50;;;1.90;;
60494;SDS011;46342;49.046;11.920;2023-05-07T12:17:42;2.10;;;1.98;;
60494;SDS011;46342;49.046;11.920;2023-05-07T12:20:08;2.00;;;1.90;;
60494;SDS011;46342;49.046;11.920;2023-05-07T12:22:35;2.58;;;2.28;;
60494;SDS011;46342;49.046;11.920;2023-05-07T12:25:01;2.70;;;2.50;;
60494;SDS011;46342;49.046;11.920;2023-05-07T12:27:27;3.03;;;2.60;;
60494;SDS011;46342;49.046;11.920;2023-05-07T12:29:53;2.65;;;2.45;;
60494;SDS011;46342;49.046;11.920;2023-05-07T12:32:20;2.50;;;2.30;;
60494;SDS011;46342;49.046;11.920;2023-05-07T12:34:46;3.88;;;2.53;;
60494;SDS011;46342;49.046;11.920;2023-05-07T12:37:15;2.40;;;2.20;;
60494;SDS011;46342;49.046;11.920;2023-05-07T12:40:02;2.30;;;2.10;;
60494;SDS011;46342;49.046;11.920;2023-05-07T12:42:32;3.03;;;2.22;;
60494;SDS011;46342;49.046;11.920;2023-05-07T12:45:07;2.70;;;2.50;;
60494;SDS011;46342;49.046;11.920;2023-05-07T12:47:36;2.40;;;2.20;;
60494;SDS011;46342;49.046;11.920;2023-05-07T12:50:04;2.78;;;2.10;;
60494;SDS011;46342;49.046;11.920;2023-05-07T12:52:31;2.67;;;2.08;;
60494;SDS011;46342;49.046;11.920;2023-05-07T12:54:57;2.13;;;1.90;;
60494;SDS011;46342;49.046;11.920;2023-05-07T12:57:42;3.63;;;2.28;;
60494;SDS011;46342;49.046;11.920;2023-05-07T13:00:11;2.28;;;2.08;;
60494;SDS011;46342;49.046;11.920;2023-05-07T13:02:37;2.20;;;2.00;;
60494;SDS011;46342;49.046;11.920;2023-05-07T13:05:04;2.33;;;1.90;;
60494;SDS011;46342;49.046;11.920;2023-05-07T13:07:29;1.83;;;1.73;;
60494;SDS011;46342;49.046;11.920;2023-05-07T13:09:55;1.75;;;1.65;;
60494;SDS011;46342;49.046;11.920;2023-05-07T13:12:20;2.38;;;2.17;;
60494;SDS011;46342;49.046;11.920;2023-05-07T13:14:46;2.13;;;1.63;;
60494;SDS011;46342;49.046;11.920;2023-05-07T13:17:12;1.92;;;1.83;;
60494;SDS011;46342;49.046;11.920;2023-05-07T13:19:37;2.22;;;2.00;;
60494;SDS011;46342;49.046;11.920;2023-05-07T13:22:03;2.25;;;2.05;;
60494;SDS011;46342;49.046;11.920;2023-05-07T13:24:29;2.00;;;1.80;;
60494;SDS011;46342;49.046;11.920;2023-05-07T13:26:54;3.78;;;1.77;;
60494;SDS011;46342;49.046;11.920;2023-05-07T13:29:20;2.25;;;1.70;;
60494;SDS011;46342;49.046;11.920;2023-05-07T13:31:50;1.90;;;1.70;;
60494;SDS011;46342;49.046;11.920;2023-05-07T13:34:15;1.95;;;1.60;;
60494;SDS011;46342;49.046;11.920;2023-05-07T13:36:41;1.60;;;1.48;;
60494;SDS011;46342;49.046;11.920;2023-05-07T13:39:07;1.73;;;1.40;;
60494;SDS011;46342;49.046;11.920;2023-05-07T13:41:34;1.55;;;1.38;;
60494;SDS011;46342;49.046;11.920;2023-05-07T13:43:59;1.77;;;1.35;;
60494;SDS011;46342;49.046;11.920;2023-05-07T13:46:25;1.48;;;1.35;;
60494;SDS011;46342;49.046;11.920;2023-05-07T13:48:50;1.55;;;1.30;;
60494;SDS011;46342;49.046;11.920;2023-05-07T13:51:16;3.00;;;1.60;;
60494;SDS011;46342;49.046;11.920;2023-05-07T13:53:42;1.52;;;1.40;;
60494;SDS011;46342;49.046;11.920;2023-05-07T13:56:07;2.08;;;1.40;;
60494;SDS011;46342;49.046;11.920;2023-05-07T13:58:33;1.48;;;1.38;;
60494;SDS011;46342;49.046;11.920;2023-05-07T14:00:58;1.50;;;1.38;;
60494;SDS011;46342;49.046;11.920;2023-05-07T14:03:24;5.28;;;1.30;;
60494;SDS011;46342;49.046;11.920;2023-05-07T14:05:50;1.40;;;1.30;;
60494;SDS011;46342;49.046;11.920;2023-05-07T14:08:15;2.55;;;1.83;;
60494;SDS011;46342;49.046;11.920;2023-05-07T14:10:43;2.00;;;1.85;;
60494;SDS011;46342;49.046;11.920;2023-05-07T14:13:09;1.70;;;1.60;;
60494;SDS011;46342;49.046;11.920;2023-05-07T14:15:35;1.58;;;1.48;;
60494;SDS011;46342;49.046;11.920;2023-05-07T14:18:01;1.70;;;1.60;;
60494;SDS011;46342;49.046;11.920;2023-05-07T14:20:27;1.80;;;1.70;;
60494;SDS011;46342;49.046;11.920;2023-05-07T14:22:52;1.60;;;1.50;;
60494;SDS011;46342;49.046;11.920;2023-05-07T14:25:18;2.42;;;1.63;;
60494;SDS011;46342;49.046;11.920;2023-05-07T14:27:43;1.63;;;1.52;;
60494;SDS011;46342;49.046;11.920;2023-05-07T14:30:09;2.10;;;1.48;;
60494;SDS011;46342;49.046;11.920;2023-05-07T14:32:35;1.73;;;1.63;;
60494;SDS011;46342;49.046;11.920;2023-05-07T14:35:01;1.60;;;1.50;;
60494;SDS011;46342;49.046;11.920;2023-05-07T14:37:26;2.10;;;1.35;;
60494;SDS011;46342;49.046;11.920;2023-05-07T14:39:53;1.67;;;1.45;;
60494;SDS011;46342;49.046;11.920;2023-05-07T14:42:18;1.30;;;1.20;;
60494;SDS011;46342;49.046;11.920;2023-05-07T14:44:44;1.42;;;1.30;;
60494;SDS011;46342;49.046;11.920;2023-05-07T14:47:10;1.85;;;1.40;;
60494;SDS011;46342;49.046;11.920;2023-05-07T14:49:35;1.50;;;1.38;;
60494;SDS011;46342;49.046;11.920;2023-05-07T14:52:01;1.60;;;1.50;;